createdAt,value
2018-12-23T00:00:21.917Z,496.27
2018-12-23T00:02:51.874Z,495.57
2018-12-23T00:05:21.235Z,494.95
2018-12-23T00:07:50.745Z,476.25
2018-12-23T00:10:20.508Z,473.15
2018-12-23T00:12:49.863Z,470.92
2018-12-23T00:15:19.384Z,465.55
2018-12-23T00:17:49.326Z,458.65
2018-12-23T00:20:18.907Z,461.15
2018-12-23T00:22:48.407Z,453.50
2018-12-23T00:25:18.202Z,459.87
2018-12-23T00:27:47.724Z,444.15
2018-12-23T00:30:17.287Z,452.50
2018-12-23T00:32:46.978Z,447.07
2018-12-23T00:35:20.589Z,457.95
2018-12-23T00:37:46.444Z,468.50
2018-12-23T00:40:16.044Z,474.68
2018-12-23T00:42:45.586Z,484.18
2018-12-23T00:45:15.035Z,481.07
2018-12-23T00:47:44.733Z,487.77
2018-12-23T00:50:14.402Z,490.20
2018-12-23T00:52:44.102Z,490.25
2018-12-23T00:55:14.369Z,480.85
2018-12-23T00:57:43.929Z,488.07
2018-12-23T01:00:13.499Z,477.60
2018-12-23T01:02:42.988Z,478.92
2018-12-23T01:05:12.865Z,477.82
2018-12-23T01:07:42.579Z,529.95
2018-12-23T01:10:12.264Z,535.00
2018-12-23T01:12:42.007Z,479.77
2018-12-23T01:15:11.820Z,472.13
2018-12-23T01:17:41.553Z,485.20
2018-12-23T01:20:11.137Z,481.43
2018-12-23T01:22:40.639Z,471.27
2018-12-23T01:25:10.557Z,466.08
2018-12-23T01:27:39.989Z,461.40
2018-12-23T01:30:09.737Z,461.08
2018-12-23T01:32:39.088Z,457.12
2018-12-23T01:35:08.593Z,455.98
2018-12-23T01:37:38.653Z,438.95
2018-12-23T01:40:08.380Z,449.20
2018-12-23T01:42:38.048Z,450.32
2018-12-23T01:45:07.681Z,440.65
2018-12-23T01:47:37.535Z,435.52
2018-12-23T01:50:07.248Z,433.38
2018-12-23T01:52:36.955Z,434.63
2018-12-23T01:55:07.480Z,436.45
2018-12-23T01:57:37.094Z,406.05
2018-12-23T02:00:07.162Z,414.27
2018-12-23T02:02:37.118Z,415.32
2018-12-23T02:05:06.917Z,424.38
2018-12-23T02:07:36.354Z,407.23
2018-12-23T02:10:06.340Z,402.23
2018-12-23T02:12:36.176Z,390.62
2018-12-23T02:15:06.579Z,412.60
2018-12-23T02:17:36.354Z,412.08
2018-12-23T02:20:06.261Z,380.83
2018-12-23T02:22:35.836Z,386.85
2018-12-23T02:25:05.997Z,388.30
2018-12-23T02:27:35.668Z,380.40
2018-12-23T02:30:05.596Z,367.02
2018-12-23T02:32:35.451Z,368.48
2018-12-23T02:35:05.212Z,368.77
2018-12-23T02:37:34.825Z,369.68
2018-12-23T02:40:04.854Z,356.47
2018-12-23T02:42:34.336Z,366.65
2018-12-23T02:45:03.905Z,368.93
2018-12-23T02:47:33.852Z,362.72
2018-12-23T02:50:03.545Z,358.23
2018-12-23T02:52:33.083Z,356.13
2018-12-23T02:55:03.135Z,348.68
2018-12-23T02:57:32.743Z,358.13
2018-12-23T03:00:02.330Z,341.15
2018-12-23T03:02:32.157Z,333.85
2018-12-23T03:05:02.468Z,315.25
2018-12-23T03:07:32.091Z,323.13
2018-12-23T03:10:01.605Z,313.25
2018-12-23T03:12:31.187Z,301.05
2018-12-23T03:15:00.897Z,294.20
2018-12-23T03:17:30.399Z,292.25
2018-12-23T03:19:59.875Z,362.25
2018-12-23T03:22:29.288Z,284.67
2018-12-23T03:24:59.042Z,276.52
2018-12-23T03:27:28.826Z,260.73
2018-12-23T03:29:58.633Z,282.30
2018-12-23T03:32:28.626Z,250.65
2018-12-23T03:34:58.368Z,205.00
2018-12-23T03:37:28.081Z,151.63
2018-12-23T03:39:57.835Z,120.95
2018-12-23T03:42:27.525Z,97.92
2018-12-23T03:44:56.994Z,155.43
2018-12-23T03:47:26.642Z,178.90
2018-12-23T03:49:56.219Z,176.22
2018-12-23T03:52:25.817Z,272.20
2018-12-23T03:54:55.566Z,332.43
2018-12-23T03:57:24.860Z,349.90
2018-12-23T03:59:54.560Z,355.77
2018-12-23T04:02:24.282Z,391.75
2018-12-23T04:04:53.963Z,391.95
2018-12-23T04:07:23.309Z,387.42
2018-12-23T04:09:52.963Z,397.82
2018-12-23T04:12:22.307Z,381.55
2018-12-23T04:14:51.890Z,387.15
2018-12-23T04:17:21.593Z,394.87
2018-12-23T04:19:51.104Z,400.27
2018-12-23T04:22:20.505Z,379.75
2018-12-23T04:24:50.247Z,383.23
2018-12-23T04:27:19.597Z,335.32
2018-12-23T04:29:49.335Z,317.43
2018-12-23T04:32:19.137Z,300.40
2018-12-23T04:34:48.796Z,277.45
2018-12-23T04:37:18.269Z,366.52
2018-12-23T04:39:48.257Z,333.13
2018-12-23T04:42:17.819Z,244.35
2018-12-23T04:44:47.529Z,258.77
2018-12-23T04:47:17.020Z,272.73
2018-12-23T04:49:46.736Z,270.88
2018-12-23T04:52:16.325Z,266.70
2018-12-23T04:54:45.873Z,259.70
2018-12-23T04:57:15.548Z,251.27
2018-12-23T04:59:45.048Z,277.82
2018-12-23T05:02:14.791Z,329.45
2018-12-23T05:04:44.265Z,331.02
2018-12-23T05:07:13.889Z,322.88
2018-12-23T05:09:43.739Z,343.25
2018-12-23T05:12:13.190Z,343.60
2018-12-23T05:14:44.737Z,350.93
2018-12-23T05:17:12.843Z,352.43
2018-12-23T05:19:42.313Z,341.73
2018-12-23T05:22:11.819Z,352.55
2018-12-23T05:24:41.675Z,345.77
2018-12-23T05:27:11.416Z,319.75
2018-12-23T05:29:41.170Z,329.18
2018-12-23T05:32:10.724Z,329.35
2018-12-23T05:34:40.209Z,329.43
2018-12-23T05:37:09.799Z,327.52
2018-12-23T05:39:39.832Z,327.00
2018-12-23T05:42:09.411Z,332.98
2018-12-23T05:44:39.303Z,328.88
2018-12-23T05:47:08.819Z,328.67
2018-12-23T05:49:38.211Z,323.07
2018-12-23T05:52:07.665Z,321.73
2018-12-23T05:54:37.267Z,316.48
2018-12-23T05:57:06.633Z,312.38
2018-12-23T05:59:36.222Z,314.35
2018-12-23T06:02:06.059Z,323.23
2018-12-23T06:04:35.783Z,318.02
2018-12-23T06:07:05.296Z,331.80
2018-12-23T06:09:35.045Z,328.52
2018-12-23T06:12:04.707Z,310.15
2018-12-23T06:14:34.386Z,311.25
2018-12-23T06:17:03.863Z,315.85
2018-12-23T06:19:33.597Z,307.07
2018-12-23T06:22:03.029Z,309.73
2018-12-23T06:24:32.707Z,309.10
2018-12-23T06:27:02.371Z,329.57
2018-12-23T06:29:32.059Z,313.18
2018-12-23T06:32:02.133Z,309.87
2018-12-23T06:34:31.812Z,305.27
2018-12-23T06:37:09.725Z,312.72
2018-12-23T06:39:30.883Z,307.98
2018-12-23T06:42:00.304Z,298.57
2018-12-23T06:44:30.152Z,295.05
2018-12-23T06:46:59.711Z,283.73
2018-12-23T06:49:29.341Z,260.68
2018-12-23T06:51:59.181Z,286.05
2018-12-23T06:54:28.868Z,277.60
2018-12-23T06:56:58.560Z,314.38
2018-12-23T06:59:28.470Z,285.43
2018-12-23T07:01:58.107Z,296.20
2018-12-23T07:04:27.954Z,291.95
2018-12-23T07:06:57.817Z,263.35
2018-12-23T07:09:27.575Z,264.00
2018-12-23T07:11:57.169Z,272.30
2018-12-23T07:14:27.086Z,254.63
2018-12-23T07:16:56.718Z,236.95
2018-12-23T07:19:26.391Z,246.62
2018-12-23T07:21:55.870Z,218.67
2018-12-23T07:24:26.063Z,220.25
2018-12-23T07:26:55.898Z,207.05
2018-12-23T07:29:25.704Z,198.95
2018-12-23T07:31:55.305Z,185.63
2018-12-23T07:34:24.663Z,190.53
2018-12-23T07:36:54.873Z,182.60
2018-12-23T07:39:24.363Z,183.90
2018-12-23T07:41:53.797Z,169.65
2018-12-23T07:44:23.228Z,155.27
2018-12-23T07:46:52.907Z,132.15
2018-12-23T07:49:22.347Z,115.80
2018-12-23T07:51:52.356Z,99.80
2018-12-23T07:54:21.703Z,85.80
2018-12-23T07:56:51.430Z,84.07
2018-12-23T07:59:20.918Z,84.50
2018-12-23T08:01:50.267Z,85.17
2018-12-23T08:04:19.683Z,77.78
2018-12-23T08:06:49.538Z,71.05
2018-12-23T08:09:19.045Z,70.92
2018-12-23T08:11:48.444Z,78.62
2018-12-23T08:14:18.002Z,79.07
2018-12-23T08:16:47.684Z,74.58
2018-12-23T08:19:17.487Z,61.85
2018-12-23T08:21:47.099Z,66.70
2018-12-23T08:24:17.120Z,64.77
2018-12-23T08:26:46.690Z,65.92
2018-12-23T08:29:16.277Z,58.35
2018-12-23T08:31:45.965Z,51.42
2018-12-23T08:34:15.539Z,53.45
2018-12-23T08:36:45.167Z,39.75
2018-12-23T08:39:15.103Z,37.73
2018-12-23T08:41:44.572Z,41.48
2018-12-23T08:44:14.071Z,35.80
2018-12-23T08:46:44.031Z,31.50
2018-12-23T08:49:16.683Z,33.45
2018-12-23T08:51:46.408Z,34.50
2018-12-23T08:54:16.146Z,33.53
2018-12-23T08:56:45.810Z,73.15
2018-12-23T08:59:15.537Z,95.53
2018-12-23T09:01:45.131Z,32.05
2018-12-23T09:04:14.728Z,30.30
2018-12-23T09:06:44.680Z,28.30
2018-12-23T09:09:14.107Z,31.65
2018-12-23T09:11:43.778Z,33.28
2018-12-23T09:14:13.530Z,24.15
2018-12-23T09:16:42.871Z,27.82
2018-12-23T09:19:12.558Z,30.37
2018-12-23T09:21:42.290Z,113.30
2018-12-23T09:24:11.908Z,22.60
2018-12-23T09:26:41.907Z,17.77
2018-12-23T09:29:11.867Z,93.67
2018-12-23T09:31:41.567Z,46.98
2018-12-23T09:34:11.288Z,21.90
2018-12-23T09:36:40.737Z,17.32
2018-12-23T09:39:10.583Z,17.05
2018-12-23T09:41:40.384Z,16.55
2018-12-23T09:44:10.027Z,17.35
2018-12-23T09:46:39.670Z,15.75
2018-12-23T09:49:09.171Z,17.73
2018-12-23T09:51:38.742Z,12.53
2018-12-23T09:54:08.370Z,12.90
2018-12-23T09:56:37.853Z,15.23
2018-12-23T09:59:07.504Z,15.58
2018-12-23T10:01:37.079Z,16.02
2018-12-23T10:04:06.656Z,17.57
2018-12-23T10:06:36.265Z,42.98
2018-12-23T10:09:06.936Z,13.90
2018-12-23T10:11:36.963Z,16.75
2018-12-23T10:14:06.432Z,21.75
2018-12-23T10:16:35.935Z,18.02
2018-12-23T10:19:05.842Z,20.85
2018-12-23T10:21:35.451Z,65.52
2018-12-23T10:24:05.181Z,27.58
2018-12-23T10:26:35.055Z,13.35
2018-12-23T10:29:04.700Z,29.32
2018-12-23T10:31:34.251Z,15.43
2018-12-23T10:34:03.836Z,138.55
2018-12-23T10:36:33.575Z,20.95
2018-12-23T10:39:03.201Z,16.40
2018-12-23T10:41:32.779Z,16.50
2018-12-23T10:44:02.236Z,14.83
2018-12-23T10:46:31.872Z,14.13
2018-12-23T10:49:01.891Z,16.20
2018-12-23T10:51:31.598Z,17.23
2018-12-23T10:54:01.391Z,18.77
2018-12-23T10:56:31.032Z,16.87
2018-12-23T10:59:00.600Z,18.90
2018-12-23T11:01:30.221Z,17.00
2018-12-23T11:03:59.813Z,12.63
2018-12-23T11:06:29.321Z,13.48
2018-12-23T11:08:59.139Z,10.03
2018-12-23T11:11:28.563Z,9.18
2018-12-23T11:13:58.064Z,13.90
2018-12-23T11:16:27.750Z,15.88
2018-12-23T11:18:57.681Z,9.88
2018-12-23T11:21:27.494Z,7.28
2018-12-23T11:23:56.979Z,103.87
2018-12-23T11:26:26.622Z,45.78
2018-12-23T11:28:56.311Z,12.13
2018-12-23T11:31:25.948Z,12.25
2018-12-23T11:33:55.397Z,32.33
2018-12-23T11:36:25.054Z,13.72
2018-12-23T11:38:54.678Z,8.70
2018-12-23T11:41:26.542Z,58.73
2018-12-23T11:43:55.887Z,82.00
2018-12-23T11:46:25.518Z,12.00
2018-12-23T11:48:55.143Z,8.90
2018-12-23T11:51:24.529Z,67.90
2018-12-23T11:53:54.127Z,8.33
2018-12-23T11:56:23.489Z,7.00
2018-12-23T11:58:53.310Z,10.67
2018-12-23T12:01:22.746Z,7.57
2018-12-23T12:03:52.339Z,7.57
2018-12-23T12:06:21.743Z,9.27
2018-12-23T12:08:51.390Z,7.67
2018-12-23T12:11:20.832Z,232.80
2018-12-23T12:13:50.394Z,7.90
2018-12-23T12:16:19.987Z,7.03
2018-12-23T12:18:49.863Z,5.57
2018-12-23T12:21:19.519Z,6.03
2018-12-23T12:23:49.028Z,28.60
2018-12-23T12:26:18.786Z,8.57
2018-12-23T12:28:48.345Z,7.50
2018-12-23T12:31:17.818Z,18.43
2018-12-23T12:33:47.363Z,7.70
2018-12-23T12:36:16.982Z,8.07
2018-12-23T12:38:52.166Z,6.37
2018-12-23T12:41:17.299Z,6.90
2018-12-23T12:43:46.921Z,6.87
2018-12-23T12:46:16.810Z,6.87
2018-12-23T12:48:46.804Z,10.67
2018-12-23T12:51:16.344Z,7.95
2018-12-23T12:53:46.072Z,5.78
2018-12-23T12:56:15.561Z,6.75
2018-12-23T12:58:45.063Z,5.65
2018-12-23T13:01:14.712Z,7.15
2018-12-23T13:03:44.411Z,6.47
2018-12-23T13:06:14.141Z,6.75
2018-12-23T13:08:43.910Z,7.25
2018-12-23T13:11:13.675Z,6.47
2018-12-23T13:13:43.343Z,7.08
2018-12-23T13:16:13.057Z,9.30
2018-12-23T13:18:42.576Z,7.40
2018-12-23T13:21:12.063Z,6.97
2018-12-23T13:23:41.671Z,82.42
2018-12-23T13:26:11.210Z,43.30
2018-12-23T13:28:40.691Z,12.68
2018-12-23T13:31:10.399Z,8.15
2018-12-23T13:33:40.300Z,7.72
2018-12-23T13:36:09.997Z,7.85
2018-12-23T13:38:39.531Z,10.85
2018-12-23T13:41:16.643Z,18.35
2018-12-23T13:45:59.461Z,7.00
2018-12-23T13:48:47.115Z,7.78
2018-12-23T13:52:00.445Z,6.70
2018-12-23T13:56:44.481Z,4.67
2018-12-23T13:59:22.836Z,8.83
2018-12-23T14:03:03.784Z,8.65
2018-12-23T14:05:59.844Z,5.30
2018-12-23T14:08:44.671Z,3.75
2018-12-23T14:12:19.227Z,3.90
2018-12-23T14:14:48.689Z,7.58
2018-12-23T14:17:18.093Z,3.27
2018-12-23T14:19:47.496Z,2.67
2018-12-23T14:22:17.136Z,1.67
2018-12-23T14:24:46.607Z,1.70
2018-12-23T14:27:16.259Z,3.05
2018-12-23T14:29:46.084Z,3.40
2018-12-23T14:32:15.706Z,11.55
2018-12-23T14:34:45.560Z,7.20
2018-12-23T14:37:15.308Z,2.87
2018-12-23T14:39:45.027Z,3.58
2018-12-23T14:42:15.802Z,3.72
2018-12-23T14:44:45.187Z,2.83
2018-12-23T14:47:15.141Z,3.47
2018-12-23T14:49:44.403Z,6.80
2018-12-23T14:52:14.313Z,4.40
2018-12-23T14:54:43.982Z,5.03
2018-12-23T14:57:13.439Z,6.30
2018-12-23T14:59:43.922Z,3.75
2018-12-23T15:02:13.600Z,3.02
2018-12-23T15:04:47.347Z,29.57
2018-12-23T15:07:17.069Z,20.95
2018-12-23T15:09:46.546Z,9.33
2018-12-23T15:12:15.962Z,4.78
2018-12-23T15:14:45.431Z,5.62
2018-12-23T15:17:15.161Z,9.68
2018-12-23T15:19:44.984Z,43.52
2018-12-23T15:22:14.465Z,90.83
2018-12-23T15:24:44.181Z,13.28
2018-12-23T15:27:14.125Z,7.00
2018-12-23T15:29:43.754Z,6.80
2018-12-23T15:32:13.510Z,8.93
2018-12-23T15:34:43.363Z,6.35
2018-12-23T15:37:13.029Z,7.35
2018-12-23T15:39:43.003Z,8.85
2018-12-23T15:42:12.710Z,10.08
2018-12-23T15:44:42.490Z,11.63
2018-12-23T15:47:12.137Z,305.37
2018-12-23T15:49:41.746Z,54.05
2018-12-23T15:52:11.205Z,17.02
2018-12-23T15:54:46.210Z,16.27
2018-12-23T15:57:10.575Z,16.48
2018-12-23T15:59:39.996Z,14.63
2018-12-23T16:02:09.751Z,14.80
2018-12-23T16:04:39.790Z,18.05
2018-12-23T16:07:09.475Z,16.35
2018-12-23T16:09:39.062Z,14.70
2018-12-23T16:12:10.354Z,13.45
2018-12-23T16:14:42.082Z,12.50
2018-12-23T16:17:11.789Z,10.32
2018-12-23T16:19:42.110Z,10.93
2018-12-23T16:22:11.506Z,11.15
2018-12-23T16:24:46.849Z,11.53
2018-12-23T16:27:16.459Z,27.30
2018-12-23T16:29:46.160Z,12.18
2018-12-23T16:32:16.227Z,11.57
2018-12-23T16:34:45.790Z,9.70
2018-12-23T16:37:15.524Z,12.65
2018-12-23T16:39:45.451Z,10.50
2018-12-23T16:42:15.048Z,10.00
2018-12-23T16:44:45.066Z,35.00
2018-12-23T16:47:14.594Z,33.10
2018-12-23T16:49:44.264Z,23.47
2018-12-23T16:52:13.794Z,18.57
2018-12-23T16:54:43.623Z,18.23
2018-12-23T16:57:13.321Z,27.55
2018-12-23T16:59:42.852Z,13.10
2018-12-23T17:02:12.508Z,17.75
2018-12-23T17:04:42.128Z,14.98
2018-12-23T17:07:11.734Z,14.25
2018-12-23T17:09:41.772Z,15.98
2018-12-23T17:12:11.325Z,13.72
2018-12-23T17:14:41.045Z,17.05
2018-12-23T17:17:10.730Z,4.83
2018-12-23T17:19:40.638Z,6.85
2018-12-23T17:22:10.132Z,5.62
2018-12-23T17:24:39.810Z,5.72
2018-12-23T17:27:09.288Z,3.60
2018-12-23T17:29:39.257Z,4.78
2018-12-23T17:32:08.683Z,7.65
2018-12-23T17:34:38.267Z,4.92
2018-12-23T17:37:08.051Z,5.60
2018-12-23T17:39:37.790Z,6.80
2018-12-23T17:42:07.378Z,5.55
2018-12-23T17:44:37.410Z,4.85
2018-12-23T17:47:06.901Z,8.43
2018-12-23T17:49:36.616Z,4.87
2018-12-23T17:52:06.348Z,4.28
2018-12-23T17:54:36.010Z,8.43
2018-12-23T17:57:05.532Z,4.55
2018-12-23T17:59:35.165Z,6.78
2018-12-23T18:02:04.844Z,4.53
2018-12-23T18:04:34.577Z,4.67
2018-12-23T18:07:05.178Z,5.90
2018-12-23T18:09:34.685Z,5.00
2018-12-23T18:12:04.627Z,5.33
2018-12-23T18:14:34.269Z,5.03
2018-12-23T18:17:03.865Z,4.05
2018-12-23T18:19:33.671Z,6.22
2018-12-23T18:22:03.591Z,8.33
2018-12-23T18:24:33.044Z,16.37
2018-12-23T18:27:02.696Z,12.45
2018-12-23T18:29:32.514Z,5.45
2018-12-23T18:32:02.221Z,5.55
2018-12-23T18:34:31.977Z,6.58
2018-12-23T18:37:01.555Z,7.58
2018-12-23T18:39:31.015Z,7.47
2018-12-23T18:42:00.743Z,11.45
2018-12-23T18:44:30.560Z,12.18
2018-12-23T18:47:00.282Z,9.70
2018-12-23T18:49:30.551Z,12.82
2018-12-23T18:52:00.063Z,28.12
2018-12-23T18:54:29.841Z,29.27
2018-12-23T18:57:04.835Z,33.85
2018-12-23T18:59:38.098Z,47.83
2018-12-23T19:02:11.023Z,36.15
2018-12-23T19:04:40.861Z,42.45
2018-12-23T19:07:10.272Z,39.70
2018-12-23T19:09:49.609Z,41.33
2018-12-23T19:12:49.778Z,42.62
2018-12-23T19:16:39.854Z,40.78
2018-12-23T19:21:29.460Z,39.85
2018-12-23T19:24:26.394Z,72.20
2018-12-23T19:27:17.797Z,79.27
2018-12-23T19:30:07.366Z,115.32
2018-12-23T19:33:07.384Z,106.95
2018-12-23T19:37:52.163Z,119.40
2018-12-23T19:41:38.356Z,103.70
2018-12-23T19:44:18.722Z,85.40
2018-12-23T19:47:11.933Z,81.50
2018-12-23T19:49:51.853Z,43.78
2018-12-23T19:54:39.827Z,52.25
2018-12-23T19:57:40.735Z,114.80
2018-12-23T20:00:20.000Z,38.78
2018-12-23T20:03:01.966Z,46.42
2018-12-23T20:06:58.160Z,67.70
2018-12-23T20:09:43.219Z,39.13
2018-12-23T20:12:38.752Z,39.98
2018-12-23T20:15:23.158Z,41.83
2018-12-23T20:18:24.532Z,41.70
2018-12-23T20:21:38.757Z,37.95
2018-12-23T20:24:52.604Z,124.15
2018-12-23T20:28:07.229Z,45.23
2018-12-23T20:30:54.347Z,48.83
2018-12-23T20:34:40.422Z,48.90
2018-12-23T20:37:31.706Z,50.05
2018-12-23T20:40:12.164Z,46.02
2018-12-23T20:42:51.295Z,40.80
2018-12-23T20:46:37.665Z,68.12
2018-12-23T20:50:03.359Z,43.08
2018-12-23T20:53:50.728Z,40.88
2018-12-23T20:57:26.376Z,39.20
2018-12-23T21:00:16.670Z,39.78
2018-12-23T21:05:05.874Z,43.52
2018-12-23T21:07:52.159Z,44.45
2018-12-23T21:13:47.128Z,37.03
2018-12-23T21:16:32.481Z,58.10
2018-12-23T21:20:10.938Z,155.10
2018-12-23T21:22:54.439Z,52.60
2018-12-23T21:26:44.519Z,42.60
2018-12-23T21:29:55.616Z,41.58
2018-12-23T21:32:34.969Z,39.70
2018-12-23T21:35:17.411Z,37.73
2018-12-23T21:38:15.714Z,42.40
2018-12-23T21:41:56.054Z,34.95
2018-12-23T21:45:40.433Z,36.40
2018-12-23T21:48:35.760Z,43.10
2018-12-23T21:52:15.505Z,38.15
2018-12-23T21:55:37.255Z,38.38
2018-12-23T22:00:19.495Z,37.65
2018-12-23T22:02:59.368Z,49.18
2018-12-23T22:06:45.836Z,41.45
2018-12-23T22:09:32.026Z,39.65
2018-12-23T22:14:10.063Z,40.05
2018-12-23T22:16:39.804Z,43.63
2018-12-23T22:19:09.468Z,41.48
2018-12-23T22:21:39.203Z,42.33
2018-12-23T22:24:08.779Z,39.60
2018-12-23T22:26:38.263Z,46.30
2018-12-23T22:29:07.849Z,41.18
2018-12-23T22:31:38.592Z,37.45
2018-12-23T22:34:08.127Z,35.03
2018-12-23T22:36:37.692Z,68.30
2018-12-23T22:39:08.199Z,59.53
2018-12-23T22:41:41.289Z,43.05
2018-12-23T22:44:07.415Z,41.15
2018-12-23T22:46:36.787Z,49.98
2018-12-23T22:49:06.608Z,51.30
2018-12-23T22:51:36.137Z,52.10
2018-12-23T22:54:05.605Z,49.77
2018-12-23T22:56:35.312Z,49.30
2018-12-23T22:59:05.116Z,52.83
2018-12-23T23:01:34.508Z,51.55
2018-12-23T23:04:04.275Z,52.73
2018-12-23T23:06:34.295Z,52.70
2018-12-23T23:09:04.544Z,54.67
2018-12-23T23:11:34.849Z,51.60
2018-12-23T23:14:04.628Z,55.17
2018-12-23T23:16:34.802Z,56.13
2018-12-23T23:19:04.225Z,50.88
2018-12-23T23:21:33.656Z,55.58
2018-12-23T23:24:03.379Z,116.50
2018-12-23T23:26:33.003Z,67.62
2018-12-23T23:29:02.354Z,81.17
2018-12-23T23:31:31.724Z,76.35
2018-12-23T23:34:01.522Z,100.53
2018-12-23T23:36:31.014Z,106.63
2018-12-23T23:39:00.709Z,73.87
2018-12-23T23:41:30.280Z,65.97
2018-12-23T23:44:02.225Z,56.65
2018-12-23T23:46:29.911Z,68.22
2018-12-23T23:48:59.341Z,65.72
2018-12-23T23:51:29.052Z,75.17
2018-12-23T23:53:59.129Z,67.32
2018-12-23T23:56:28.591Z,71.72
2018-12-23T23:58:58.070Z,48.70
